createdAt,value
2017-09-30T00:01:54.876Z,33.63
2017-09-30T00:07:23.005Z,39.47
2017-09-30T00:12:51.917Z,36.60
2017-09-30T00:18:20.088Z,34.20
2017-09-30T00:23:48.275Z,38.20
2017-09-30T00:29:16.409Z,39.33
2017-09-30T00:34:44.569Z,33.60
2017-09-30T00:40:12.715Z,28.23
2017-09-30T00:45:40.862Z,33.77
2017-09-30T00:51:09.002Z,30.70
2017-09-30T00:56:37.168Z,29.23
2017-09-30T01:02:05.325Z,28.27
2017-09-30T01:07:33.470Z,29.80
2017-09-30T01:13:01.619Z,31.90
2017-09-30T01:18:29.776Z,29.37
2017-09-30T01:23:58.681Z,27.80
2017-09-30T01:29:26.809Z,30.00
2017-09-30T01:34:55.721Z,27.83
2017-09-30T01:40:23.877Z,30.87
2017-09-30T01:45:52.018Z,31.63
2017-09-30T01:51:20.170Z,27.67
2017-09-30T01:56:48.340Z,27.30
2017-09-30T02:02:16.486Z,30.20
2017-09-30T02:07:44.637Z,29.63
2017-09-30T02:13:13.540Z,29.83
2017-09-30T02:18:41.695Z,29.37
2017-09-30T02:24:09.846Z,26.17
2017-09-30T02:29:38.008Z,23.30
2017-09-30T02:35:06.155Z,30.00
2017-09-30T02:40:34.331Z,23.77
2017-09-30T02:46:02.497Z,27.63
2017-09-30T02:51:30.651Z,31.00
2017-09-30T02:56:58.786Z,25.93
2017-09-30T03:02:26.942Z,24.23
2017-09-30T03:07:55.096Z,28.47
2017-09-30T03:13:23.998Z,24.33
2017-09-30T03:18:52.143Z,24.63
2017-09-30T03:24:20.296Z,25.13
2017-09-30T03:29:48.442Z,21.83
2017-09-30T03:35:16.619Z,26.37
2017-09-30T03:40:44.769Z,20.77
2017-09-30T03:46:12.923Z,18.97
2017-09-30T03:51:41.066Z,23.43
2017-09-30T03:57:09.992Z,21.17
2017-09-30T04:02:38.152Z,20.90
2017-09-30T04:08:06.279Z,20.87
2017-09-30T04:13:34.432Z,22.47
2017-09-30T04:19:02.575Z,23.33
2017-09-30T04:24:31.500Z,25.20
2017-09-30T04:29:59.648Z,26.37
2017-09-30T04:35:27.804Z,21.77
2017-09-30T04:40:55.969Z,25.47
2017-09-30T04:46:24.124Z,23.20
2017-09-30T04:51:52.275Z,20.27
2017-09-30T04:57:20.421Z,22.03
2017-09-30T05:02:49.325Z,20.57
2017-09-30T05:08:17.479Z,19.57
2017-09-30T05:13:45.642Z,18.73
2017-09-30T05:19:13.790Z,20.97
2017-09-30T05:24:41.934Z,18.87
2017-09-30T05:30:10.211Z,21.77
2017-09-30T05:35:38.364Z,20.70
2017-09-30T05:41:06.516Z,19.23
2017-09-30T05:46:34.656Z,20.37
2017-09-30T05:52:02.813Z,19.90
2017-09-30T05:57:31.183Z,19.60
2017-09-30T06:02:59.352Z,19.00
2017-09-30T06:08:27.507Z,19.20
2017-09-30T06:13:55.648Z,21.13
2017-09-30T06:19:23.820Z,28.60
2017-09-30T06:24:51.968Z,18.37
2017-09-30T06:30:20.968Z,18.93
2017-09-30T06:35:49.104Z,22.97
2017-09-30T06:41:17.254Z,22.40
2017-09-30T06:46:45.408Z,19.40
2017-09-30T06:52:14.321Z,20.10
2017-09-30T06:57:42.466Z,25.80
2017-09-30T07:03:10.622Z,16.97
2017-09-30T07:08:38.781Z,18.50
2017-09-30T07:14:06.924Z,16.00
2017-09-30T07:19:35.066Z,15.27
2017-09-30T07:25:03.977Z,14.50
2017-09-30T07:30:32.127Z,16.50
2017-09-30T07:36:00.267Z,16.10
2017-09-30T07:41:28.419Z,14.60
2017-09-30T07:46:56.566Z,15.47
2017-09-30T07:52:25.488Z,13.83
2017-09-30T07:57:53.656Z,16.07
2017-09-30T08:03:21.802Z,15.17
2017-09-30T08:08:50.315Z,16.30
2017-09-30T08:14:18.447Z,13.97
2017-09-30T08:19:46.599Z,11.67
2017-09-30T08:25:14.756Z,16.20
2017-09-30T08:30:42.893Z,17.47
2017-09-30T08:36:11.035Z,15.20
2017-09-30T08:41:39.197Z,14.23
2017-09-30T08:47:07.388Z,15.07
2017-09-30T08:52:35.539Z,17.30
2017-09-30T08:58:03.698Z,16.17
2017-09-30T09:03:31.840Z,17.10
2017-09-30T09:09:00.005Z,17.50
2017-09-30T09:14:28.150Z,18.37
2017-09-30T09:19:56.298Z,14.77
2017-09-30T09:25:24.450Z,14.50
2017-09-30T09:30:52.704Z,16.17
2017-09-30T09:36:20.854Z,15.50
2017-09-30T09:41:49.769Z,15.07
2017-09-30T09:47:17.937Z,16.23
2017-09-30T09:52:46.081Z,14.93
2017-09-30T09:58:14.239Z,14.87
2017-09-30T10:03:42.386Z,16.60
2017-09-30T10:09:10.538Z,15.60
2017-09-30T10:14:38.689Z,20.83
2017-09-30T10:20:06.827Z,15.00
2017-09-30T10:25:35.743Z,15.73
2017-09-30T10:31:03.896Z,17.37
2017-09-30T10:36:32.053Z,17.10
2017-09-30T10:42:00.190Z,13.40
2017-09-30T10:47:28.341Z,12.70
2017-09-30T10:52:57.269Z,13.10
2017-09-30T10:58:25.416Z,16.83
2017-09-30T11:03:53.581Z,11.57
2017-09-30T11:09:21.733Z,15.63
2017-09-30T11:14:49.873Z,12.87
2017-09-30T11:20:18.057Z,10.83
2017-09-30T11:25:46.450Z,13.10
2017-09-30T11:31:14.605Z,9.63
2017-09-30T11:36:42.755Z,11.77
2017-09-30T11:42:10.899Z,10.73
2017-09-30T11:47:39.034Z,7.90
2017-09-30T11:53:07.185Z,9.50
2017-09-30T11:58:35.326Z,10.77
2017-09-30T12:04:03.464Z,8.13
2017-09-30T12:09:31.655Z,8.33
2017-09-30T12:14:59.852Z,10.10
2017-09-30T12:20:27.995Z,10.50
2017-09-30T12:25:56.173Z,16.13
2017-09-30T12:31:24.336Z,10.77
2017-09-30T12:36:52.502Z,12.90
2017-09-30T12:42:20.636Z,14.63
2017-09-30T12:47:48.777Z,12.40
2017-09-30T12:53:16.938Z,14.50
2017-09-30T12:58:45.096Z,11.93
2017-09-30T13:04:13.257Z,15.47
2017-09-30T13:09:41.432Z,16.00
2017-09-30T13:15:09.576Z,16.10
2017-09-30T13:20:37.754Z,17.13
2017-09-30T13:26:05.899Z,14.57
2017-09-30T13:31:34.062Z,13.33
2017-09-30T13:37:02.224Z,16.20
2017-09-30T13:42:30.366Z,16.97
2017-09-30T13:47:58.516Z,17.70
2017-09-30T13:53:26.680Z,15.53
2017-09-30T13:58:54.810Z,19.07
2017-09-30T14:04:23.726Z,16.13
2017-09-30T14:09:51.893Z,16.40
2017-09-30T14:15:20.268Z,17.07
2017-09-30T14:20:48.415Z,13.50
2017-09-30T14:26:16.557Z,13.20
2017-09-30T14:31:44.694Z,10.43
2017-09-30T14:37:12.865Z,11.67
2017-09-30T14:42:41.052Z,16.90
2017-09-30T14:48:09.217Z,14.07
2017-09-30T14:53:37.368Z,14.33
2017-09-30T14:59:05.523Z,10.60
2017-09-30T15:04:33.669Z,16.73
2017-09-30T15:10:01.808Z,11.80
2017-09-30T15:15:29.953Z,13.13
2017-09-30T15:20:58.117Z,12.07
2017-09-30T15:26:26.319Z,14.00
2017-09-30T15:31:54.476Z,11.13
2017-09-30T15:37:22.631Z,16.50
2017-09-30T15:42:51.572Z,19.33
2017-09-30T15:48:19.858Z,16.00
2017-09-30T15:53:48.007Z,14.10
2017-09-30T15:59:16.213Z,15.73
2017-09-30T16:04:44.475Z,19.07
2017-09-30T16:10:12.656Z,15.83
2017-09-30T16:15:40.839Z,16.50
2017-09-30T16:21:08.987Z,18.03
2017-09-30T16:26:37.138Z,28.63
2017-09-30T16:32:05.282Z,22.03
2017-09-30T16:37:33.603Z,22.13
2017-09-30T16:43:02.544Z,25.50
2017-09-30T16:48:30.694Z,22.43
2017-09-30T16:53:58.864Z,22.90
2017-09-30T16:59:27.026Z,24.17
2017-09-30T17:04:55.178Z,37.20
2017-09-30T17:10:23.361Z,32.33
2017-09-30T17:15:52.283Z,26.80
2017-09-30T17:21:20.430Z,26.47
2017-09-30T17:26:48.639Z,23.43
2017-09-30T17:32:16.795Z,24.80
2017-09-30T17:37:44.948Z,28.03
2017-09-30T17:43:13.099Z,30.33
2017-09-30T17:48:41.268Z,23.97
2017-09-30T17:54:09.456Z,29.30
2017-09-30T17:59:38.367Z,23.57
2017-09-30T18:05:06.511Z,29.03
2017-09-30T18:10:34.659Z,24.27
2017-09-30T18:16:03.566Z,25.20
2017-09-30T18:21:31.716Z,23.77
2017-09-30T18:26:59.880Z,26.10
2017-09-30T18:32:28.036Z,21.90
2017-09-30T18:37:57.313Z,23.37
2017-09-30T18:43:25.472Z,23.53
2017-09-30T18:48:53.636Z,25.93
2017-09-30T18:54:21.780Z,26.00
2017-09-30T18:59:50.048Z,23.77
2017-09-30T19:05:18.237Z,29.70
2017-09-30T19:10:46.419Z,26.60
2017-09-30T19:16:14.563Z,37.40
2017-09-30T19:21:44.392Z,26.47
2017-09-30T19:27:13.313Z,32.93
2017-09-30T19:32:41.484Z,29.13
2017-09-30T19:38:09.678Z,28.03
2017-09-30T19:43:38.629Z,29.60
2017-09-30T19:49:06.793Z,27.97
2017-09-30T19:54:34.943Z,35.40
2017-09-30T20:00:03.110Z,26.27
2017-09-30T20:05:31.343Z,38.13
2017-09-30T20:10:59.484Z,31.57
2017-09-30T20:16:27.656Z,27.90
2017-09-30T20:21:55.806Z,31.73
2017-09-30T20:27:23.992Z,34.40
2017-09-30T20:32:52.144Z,30.43
2017-09-30T20:38:20.300Z,28.40
2017-09-30T20:43:48.505Z,27.73
2017-09-30T20:49:16.647Z,23.23
2017-09-30T20:54:45.555Z,23.63
2017-09-30T21:00:13.699Z,25.83
2017-09-30T21:05:41.858Z,22.10
2017-09-30T21:11:10.006Z,20.27
2017-09-30T21:16:38.936Z,25.60
2017-09-30T21:22:07.314Z,21.93
2017-09-30T21:27:35.472Z,12.13
2017-09-30T21:33:03.620Z,11.10
2017-09-30T21:38:31.783Z,8.70
2017-09-30T21:43:59.922Z,9.47
2017-09-30T21:49:28.063Z,9.87
2017-09-30T21:54:56.988Z,7.50
2017-09-30T22:00:25.149Z,8.40
2017-09-30T22:05:53.291Z,6.90
2017-09-30T22:11:21.443Z,9.93
2017-09-30T22:16:49.600Z,6.90
2017-09-30T22:22:17.753Z,5.67
2017-09-30T22:27:45.908Z,5.23
2017-09-30T22:33:14.052Z,6.03
2017-09-30T22:38:42.184Z,9.33
2017-09-30T22:44:10.328Z,7.47
2017-09-30T22:49:39.236Z,9.80
2017-09-30T22:55:07.378Z,7.93
2017-09-30T23:00:35.534Z,9.87
2017-09-30T23:06:03.692Z,12.13
2017-09-30T23:11:31.846Z,10.07
2017-09-30T23:17:00.772Z,10.43
2017-09-30T23:22:28.954Z,8.03
2017-09-30T23:27:57.096Z,9.83
2017-09-30T23:33:25.243Z,9.30
2017-09-30T23:38:53.387Z,11.63
2017-09-30T23:44:21.545Z,9.00
2017-09-30T23:49:49.694Z,9.83
2017-09-30T23:55:17.850Z,7.03
